Time;durP1;ratioP1;P1;durP2;ratioP2;P2;SDS_P1;SDS_P2;PMS_P1;PMS_P2;Temp;Humidity;BMP_temperature;BMP_pressure;BME280_temperature;BME280_humidity;BME280_pressure;Samples;Min_cycle;Max_cycle;Signal;HPM_P1;HPM_P2
2022/12/16 00:01:14;;;;;;;27.33;16.40;;;-0.60;99.90;;;;;;5037587;28;20046;-66
2022/12/16 00:03:45;;;;;;;21.77;15.85;;;-0.60;99.90;;;;;;5034641;28;20092;-67
2022/12/16 00:06:11;;;;;;;23.10;15.65;;;-0.60;99.90;;;;;;5035643;28;20044;-66
2022/12/16 00:08:38;;;;;;;25.95;16.45;;;-0.60;99.90;;;;;;5043992;28;20057;-66
2022/12/16 00:11:04;;;;;;;21.70;15.50;;;-0.60;99.90;;;;;;5043755;28;20076;-67
2022/12/16 00:13:32;;;;;;;24.77;16.25;;;-0.60;99.90;;;;;;5054445;28;20045;-66
2022/12/16 00:15:58;;;;;;;24.50;16.15;;;-0.60;99.90;;;;;;5049525;28;20041;-66
2022/12/16 00:18:24;;;;;;;23.13;15.95;;;-0.60;99.90;;;;;;5057631;28;20029;-66
2022/12/16 00:20:53;;;;;;;22.60;15.45;;;-0.60;99.90;;;;;;5054462;28;20053;-67
2022/12/16 00:23:20;;;;;;;28.58;17.55;;;-0.50;99.90;;;;;;5069199;28;20045;-66
2022/12/16 00:25:47;;;;;;;22.75;15.13;;;-0.60;99.90;;;;;;5042043;28;20051;-66
2022/12/16 00:28:14;;;;;;;23.33;14.93;;;-0.50;99.90;;;;;;5057433;28;20033;-67
2022/12/16 00:30:42;;;;;;;22.83;15.18;;;-0.50;99.90;;;;;;5044971;28;20115;-66
2022/12/16 00:33:08;;;;;;;24.50;15.50;;;-0.50;99.90;;;;;;5036221;28;20079;-67
2022/12/16 00:35:34;;;;;;;25.80;15.80;;;0.50;99.90;;;;;;5037895;28;20049;-66
2022/12/16 00:38:00;;;;;;;22.13;15.77;;;-0.40;99.90;;;;;;5036304;28;20138;-66
2022/12/16 00:40:26;;;;;;;25.83;16.67;;;-0.40;99.90;;;;;;5056290;28;20045;-67
2022/12/16 00:42:52;;;;;;;23.38;15.85;;;-0.40;99.90;;;;;;5055556;28;20397;-66
2022/12/16 00:45:18;;;;;;;21.95;14.45;;;-0.40;99.90;;;;;;5054658;28;20045;-67
2022/12/16 00:47:44;;;;;;;22.55;14.98;;;-0.50;99.90;;;;;;5036451;28;20144;-66
2022/12/16 00:50:10;;;;;;;25.35;15.35;;;-0.50;99.90;;;;;;5036606;28;20133;-66
2022/12/16 00:52:36;;;;;;;22.88;15.75;;;-0.50;99.90;;;;;;5037223;28;20054;-66
2022/12/16 00:55:02;;;;;;;24.88;15.80;;;-0.60;99.90;;;;;;5037121;28;20606;-66
2022/12/16 00:57:28;;;;;;;24.27;15.68;;;-0.60;99.90;;;;;;5049905;28;20049;-67
2022/12/16 00:59:53;;;;;;;21.23;15.25;;;-0.60;99.90;;;;;;5049252;28;20072;-67
2022/12/16 01:02:19;;;;;;;25.13;15.85;;;-0.70;99.90;;;;;;5059717;28;20037;-68
2022/12/16 01:04:45;;;;;;;23.25;15.73;;;-0.70;99.90;;;;;;5026410;28;20056;-66
2022/12/16 01:07:10;;;;;;;23.88;16.05;;;-0.40;99.90;;;;;;5040272;28;20101;-67
2022/12/16 01:09:36;;;;;;;25.45;17.55;;;-0.60;99.90;;;;;;5040401;28;20608;-66
2022/12/16 01:12:02;;;;;;;24.80;16.08;;;-0.60;99.90;;;;;;5043885;28;20496;-67
2022/12/16 01:14:27;;;;;;;24.02;15.88;;;-0.60;99.90;;;;;;5049728;28;20053;-66
2022/12/16 01:16:53;;;;;;;24.17;16.48;;;-0.40;99.90;;;;;;5037217;28;20449;-66
2022/12/16 01:19:19;;;;;;;25.13;15.23;;;-0.50;99.90;;;;;;5040772;28;20045;-67
2022/12/16 01:21:44;;;;;;;27.80;17.98;;;-0.50;99.90;;;;;;5039039;28;20052;-66
2022/12/16 01:24:11;;;;;;;21.85;15.77;;;-0.60;99.90;;;;;;5038992;28;20418;-67
2022/12/16 01:26:38;;;;;;;23.67;15.20;;;-0.60;99.90;;;;;;5039839;28;20101;-66
2022/12/16 01:29:04;;;;;;;23.77;16.00;;;-0.50;99.90;;;;;;5043327;28;20496;-67
2022/12/16 01:31:30;;;;;;;24.92;16.20;;;-0.60;99.90;;;;;;5060822;28;20053;-66
2022/12/16 01:33:56;;;;;;;24.60;16.13;;;-0.60;99.90;;;;;;5057993;28;20072;-66
2022/12/16 01:36:22;;;;;;;24.10;17.00;;;-0.60;99.90;;;;;;5058807;28;20052;-66
2022/12/16 01:38:48;;;;;;;26.50;16.25;;;-0.60;99.90;;;;;;5056772;28;20056;-67
2022/12/16 01:41:15;;;;;;;28.38;17.17;;;-0.60;99.90;;;;;;5059730;28;20132;-67
2022/12/16 01:43:42;;;;;;;28.02;17.90;;;-0.60;99.90;;;;;;5051372;28;20051;-66
2022/12/16 01:46:13;;;;;;;26.33;17.45;;;-0.60;99.90;;;;;;5042043;28;20043;-66
2022/12/16 01:49:08;;;;;;;25.40;16.75;;;-0.60;99.90;;;;;;5060265;28;20049;-66
2022/12/16 01:51:43;;;;;;;27.23;16.92;;;-0.60;99.90;;;;;;5049597;28;20042;-67
2022/12/16 01:54:18;;;;;;;28.20;17.70;;;-0.70;99.90;;;;;;5039437;28;20045;-67
2022/12/16 01:56:52;;;;;;;25.90;17.27;;;-0.40;99.90;;;;;;5039936;28;20045;-67
2022/12/16 01:59:19;;;;;;;26.17;16.85;;;-0.70;99.90;;;;;;5039871;28;20045;-67
2022/12/16 02:01:45;;;;;;;25.15;17.20;;;-0.70;99.90;;;;;;5045271;28;20053;-67
2022/12/16 02:04:10;;;;;;;24.33;16.95;;;-0.70;99.90;;;;;;5037873;28;20124;-67
2022/12/16 02:06:36;;;;;;;25.60;17.70;;;-0.70;99.90;;;;;;5039147;28;20112;-67
2022/12/16 02:09:06;;;;;;;24.75;16.42;;;-0.70;99.90;;;;;;5053237;28;20081;-66
2022/12/16 02:11:46;;;;;;;25.60;16.92;;;-0.80;99.90;;;;;;5039177;28;20120;-67
2022/12/16 02:14:30;;;;;;;27.00;17.23;;;-0.70;99.90;;;;;;5041826;28;20045;-67
2022/12/16 02:17:23;;;;;;;29.85;16.67;;;-0.80;99.90;;;;;;5048835;28;20044;-66
2022/12/16 02:19:55;;;;;;;25.80;16.90;;;-0.80;99.90;;;;;;5041214;28;20056;-67
2022/12/16 02:22:30;;;;;;;24.90;16.92;;;-0.80;99.90;;;;;;5040640;28;20165;-67
2022/12/16 02:25:13;;;;;;;25.92;15.95;;;-0.80;99.90;;;;;;5057579;28;20419;-66
2022/12/16 02:27:48;;;;;;;25.73;16.77;;;-0.70;99.90;;;;;;5059808;28;20119;-67
2022/12/16 02:30:36;;;;;;;23.23;15.18;;;-0.80;99.90;;;;;;5056410;28;20059;-66
2022/12/16 02:33:21;;;;;;;30.20;16.80;;;-0.80;99.90;;;;;;5038206;28;20069;-66
2022/12/16 02:36:15;;;;;;;25.20;15.40;;;-0.80;99.90;;;;;;5038220;28;20125;-66
2022/12/16 02:38:53;;;;;;;27.40;16.38;;;-0.90;99.90;;;;;;5035517;28;20065;-66
2022/12/16 02:41:25;;;;;;;26.38;16.92;;;-0.90;99.90;;;;;;5038666;28;20464;-67
2022/12/16 02:43:56;;;;;;;28.98;17.20;;;-0.90;99.90;;;;;;5037551;28;20107;-66
2022/12/16 02:46:28;;;;;;;25.05;17.30;;;-0.90;99.90;;;;;;5036994;28;20523;-67
2022/12/16 02:48:55;;;;;;;26.63;17.27;;;-0.90;99.90;;;;;;5050398;28;20049;-66
2022/12/16 02:51:25;;;;;;;29.08;18.60;;;-0.90;99.90;;;;;;5056803;28;20052;-66
2022/12/16 02:53:53;;;;;;;28.38;17.58;;;-1.00;99.90;;;;;;5057256;28;20057;-66
2022/12/16 02:56:37;;;;;;;25.77;17.85;;;-1.00;99.90;;;;;;5057668;28;20041;-66
2022/12/16 02:59:26;;;;;;;29.80;17.25;;;-0.90;99.90;;;;;;5044382;28;20521;-67
2022/12/16 03:01:59;;;;;;;28.13;16.83;;;-0.90;99.90;;;;;;5037403;28;20049;-67
2022/12/16 03:04:40;;;;;;;28.33;17.17;;;-1.00;99.90;;;;;;5037055;28;20088;-67
2022/12/16 03:07:12;;;;;;;27.40;17.73;;;-1.00;99.90;;;;;;5049474;28;20119;-67
2022/12/16 03:09:40;;;;;;;29.30;18.05;;;-1.00;99.90;;;;;;5058186;28;20095;-66
2022/12/16 03:12:11;;;;;;;25.40;17.00;;;-0.80;99.90;;;;;;5055132;28;20475;-67
2022/12/16 03:14:41;;;;;;;26.33;15.88;;;-1.10;99.90;;;;;;5049280;28;20033;-67
2022/12/16 03:17:08;;;;;;;27.67;15.80;;;-1.10;99.90;;;;;;5056540;28;20047;-67
2022/12/16 03:19:36;;;;;;;30.98;17.63;;;-1.20;99.90;;;;;;5057315;28;20048;-66
2022/12/16 03:22:10;;;;;;;28.05;17.95;;;-1.20;99.90;;;;;;5057101;28;20052;-66
2022/12/16 03:24:36;;;;;;;27.90;17.52;;;-1.20;99.90;;;;;;5057061;28;20441;-66
2022/12/16 03:27:20;;;;;;;29.38;18.98;;;-1.20;99.90;;;;;;5046436;28;20053;-68
2022/12/16 03:30:05;;;;;;;29.27;17.40;;;-1.20;99.90;;;;;;5034775;28;20052;-68
2022/12/16 03:32:40;;;;;;;33.50;17.48;;;-1.20;99.90;;;;;;5036520;28;20045;-68
2022/12/16 03:35:35;;;;;;;30.27;18.25;;;-1.20;99.90;;;;;;5048416;28;20193;-68
2022/12/16 03:38:04;;;;;;;31.40;19.02;;;-1.20;99.90;;;;;;5052506;28;20057;-68
2022/12/16 03:40:31;;;;;;;31.50;18.33;;;-1.30;99.90;;;;;;5058335;28;20052;-68
2022/12/16 03:42:58;;;;;;;32.67;18.35;;;-1.30;99.90;;;;;;5049433;28;20405;-68
2022/12/16 03:45:29;;;;;;;29.55;18.73;;;-1.30;99.90;;;;;;5037656;28;20102;-68
2022/12/16 03:47:58;;;;;;;30.55;18.92;;;-1.30;99.90;;;;;;5036405;28;20037;-68
2022/12/16 03:50:30;;;;;;;32.22;17.67;;;-1.30;99.90;;;;;;5035409;28;20053;-68
2022/12/16 03:52:56;;;;;;;28.50;17.92;;;-1.30;99.90;;;;;;5038572;28;20109;-68
2022/12/16 03:55:22;;;;;;;29.40;18.73;;;-1.30;99.90;;;;;;5034681;28;20073;-68
2022/12/16 03:57:48;;;;;;;32.20;18.58;;;-1.30;99.90;;;;;;5036583;28;20526;-68
2022/12/16 04:00:14;;;;;;;30.25;18.10;;;-1.30;99.90;;;;;;5044799;28;20049;-68
2022/12/16 04:02:40;;;;;;;31.55;18.38;;;-1.20;99.90;;;;;;5057373;28;20059;-68
2022/12/16 04:05:06;;;;;;;31.50;18.70;;;-1.20;99.90;;;;;;5057260;28;20049;-68
2022/12/16 04:07:32;;;;;;;34.03;18.88;;;-1.20;99.90;;;;;;5056172;28;20047;-68
2022/12/16 04:09:58;;;;;;;28.80;18.80;;;-1.20;99.90;;;;;;5045310;28;20112;-68
2022/12/16 04:26:16;;;;;;;30.65;20.48;;;-1.20;99.90;;;;;;5045659;28;20046;-68
2022/12/16 04:28:42;;;;;;;31.60;18.95;;;-1.20;99.90;;;;;;5035030;28;20045;-68
2022/12/16 04:31:08;;;;;;;30.80;20.05;;;-1.20;99.90;;;;;;5040871;28;20463;-67
